Time;durP1;ratioP1;P1;durP2;ratioP2;P2;SDS_P1;SDS_P2;PMS_P1;PMS_P2;Temp;Humidity;BMP_temperature;BMP_pressure;BME280_temperature;BME280_humidity;BME280_pressure;Samples;Min_cycle;Max_cycle;Signal;HPM_P1;HPM_P2
2022/05/21 00:01:03;;;;;;;2.20;2.00;;;16.60;95.00;;;;;;604874;238;26574;-64
2022/05/21 00:03:31;;;;;;;3.28;2.00;;;16.60;94.90;;;;;;604629;232;26931;-64
2022/05/21 00:05:58;;;;;;;2.45;2.20;;;16.60;94.90;;;;;;604626;237;27257;-64
2022/05/21 00:08:26;;;;;;;1.70;1.60;;;16.50;94.40;;;;;;604651;237;26556;-64
2022/05/21 00:10:53;;;;;;;1.80;1.70;;;16.50;94.20;;;;;;604648;233;27140;-64
2022/05/21 00:13:20;;;;;;;1.80;1.70;;;16.40;94.20;;;;;;604539;237;26611;-63
2022/05/21 00:15:47;;;;;;;1.77;1.67;;;16.40;94.00;;;;;;604591;237;26586;-64
2022/05/21 00:18:15;;;;;;;2.40;1.70;;;16.40;93.70;;;;;;602527;235;26615;-63
2022/05/21 00:20:47;;;;;;;2.83;1.40;;;16.50;93.70;;;;;;601515;239;26632;-64
2022/05/21 00:23:16;;;;;;;2.08;1.45;;;16.50;93.70;;;;;;603313;236;26602;-64
2022/05/21 00:25:44;;;;;;;1.45;1.33;;;16.40;93.10;;;;;;605069;236;26616;-64
2022/05/21 00:28:11;;;;;;;1.70;1.60;;;16.40;93.10;;;;;;602693;235;26601;-64
2022/05/21 00:30:38;;;;;;;5.05;1.60;;;16.40;92.50;;;;;;603796;236;26862;-64
2022/05/21 00:33:06;;;;;;;2.20;1.58;;;16.30;92.60;;;;;;606104;234;26655;-65
2022/05/21 00:35:34;;;;;;;1.50;1.40;;;16.30;92.60;;;;;;602914;237;26585;-64
2022/05/21 00:38:02;;;;;;;1.33;1.33;;;16.40;92.30;;;;;;604912;236;26644;-64
2022/05/21 00:40:30;;;;;;;1.50;1.27;;;16.40;92.30;;;;;;604409;236;26641;-64
2022/05/21 00:42:58;;;;;;;2.10;1.20;;;16.40;92.20;;;;;;605482;234;26647;-64
2022/05/21 00:45:25;;;;;;;1.50;1.25;;;16.40;92.20;;;;;;605978;234;26581;-64
2022/05/21 00:47:52;;;;;;;1.70;1.20;;;16.40;92.20;;;;;;605036;234;26585;-64
2022/05/21 00:50:19;;;;;;;1.17;1.17;;;16.40;92.00;;;;;;604555;236;26855;-64
2022/05/21 00:52:46;;;;;;;1.33;1.30;;;16.40;92.30;;;;;;606200;233;26605;-64
2022/05/21 00:55:14;;;;;;;1.23;1.12;;;16.40;92.00;;;;;;604866;235;27293;-64
2022/05/21 00:57:45;;;;;;;3.12;1.33;;;16.40;91.90;;;;;;603448;236;26575;-64
2022/05/21 01:00:15;;;;;;;1.50;1.23;;;16.30;91.70;;;;;;607102;235;26841;-64
2022/05/21 01:02:47;;;;;;;3.35;1.25;;;16.20;91.60;;;;;;607986;236;26597;-64
2022/05/21 01:05:13;;;;;;;1.60;1.33;;;16.10;92.00;;;;;;610157;236;26820;-64
2022/05/21 01:07:41;;;;;;;1.23;1.10;;;16.00;92.10;;;;;;610510;236;26617;-64
2022/05/21 01:10:09;;;;;;;1.00;1.00;;;16.00;92.30;;;;;;610549;236;26615;-64
2022/05/21 01:12:36;;;;;;;1.40;1.20;;;16.00;92.30;;;;;;610494;235;26592;-64
2022/05/21 01:15:05;;;;;;;3.05;1.20;;;15.80;92.70;;;;;;610086;235;26573;-65
2022/05/21 01:17:32;;;;;;;1.50;1.40;;;15.80;92.70;;;;;;610148;236;26567;-64
2022/05/21 01:20:13;;;;;;;2.35;1.20;;;15.70;92.80;;;;;;610275;236;26799;-64
2022/05/21 01:22:41;;;;;;;2.70;1.12;;;15.60;92.90;;;;;;609798;235;26573;-65
2022/05/21 01:25:09;;;;;;;1.25;1.02;;;15.50;92.60;;;;;;609783;236;26585;-65
2022/05/21 01:27:37;;;;;;;1.20;1.20;;;15.50;92.80;;;;;;609921;235;26585;-65
2022/05/21 01:30:06;;;;;;;1.95;1.12;;;15.50;92.30;;;;;;609892;235;26576;-65
2022/05/21 01:32:33;;;;;;;1.20;1.20;;;15.40;92.20;;;;;;609721;236;26619;-65
2022/05/21 01:35:00;;;;;;;0.90;0.90;;;15.40;92.00;;;;;;609860;236;26808;-65
2022/05/21 01:37:29;;;;;;;0.90;0.90;;;15.30;92.00;;;;;;609877;235;26586;-65
2022/05/21 01:39:55;;;;;;;1.08;0.93;;;15.20;92.10;;;;;;609863;236;27276;-65
2022/05/21 01:42:23;;;;;;;1.10;1.10;;;15.20;92.40;;;;;;609894;236;26836;-65
2022/05/21 01:44:52;;;;;;;4.03;1.20;;;15.10;92.30;;;;;;609913;235;26831;-65
2022/05/21 01:47:19;;;;;;;1.10;1.10;;;15.10;92.40;;;;;;609843;232;26572;-65
2022/05/21 01:49:47;;;;;;;0.98;0.95;;;15.00;92.60;;;;;;611148;233;26639;-65
2022/05/21 01:52:15;;;;;;;1.20;0.90;;;15.00;92.80;;;;;;611132;234;26632;-65
2022/05/21 01:54:42;;;;;;;1.10;1.05;;;14.90;92.70;;;;;;610740;235;26650;-65
2022/05/21 01:57:10;;;;;;;2.90;1.20;;;15.00;92.50;;;;;;610775;235;26607;-65
2022/05/21 01:59:37;;;;;;;2.62;1.08;;;14.90;92.40;;;;;;610388;235;26935;-65
2022/05/21 02:02:04;;;;;;;0.93;0.93;;;14.90;92.40;;;;;;610260;236;26600;-65
2022/05/21 02:04:32;;;;;;;1.10;1.10;;;14.90;92.60;;;;;;610413;235;26576;-64
2022/05/21 02:06:59;;;;;;;1.73;0.95;;;14.80;92.90;;;;;;610315;235;26848;-65
2022/05/21 02:09:26;;;;;;;1.40;0.90;;;14.90;92.90;;;;;;610148;236;26663;-65
2022/05/21 02:11:53;;;;;;;1.35;0.98;;;14.90;93.00;;;;;;610117;236;26868;-65
2022/05/21 02:14:21;;;;;;;0.90;0.90;;;14.90;93.00;;;;;;610139;235;26648;-65
2022/05/21 02:16:48;;;;;;;0.90;0.90;;;14.90;93.00;;;;;;610139;236;26639;-65
2022/05/21 02:19:16;;;;;;;1.48;0.90;;;14.90;93.00;;;;;;610178;236;26602;-65
2022/05/21 02:21:44;;;;;;;0.98;0.90;;;14.90;93.20;;;;;;610186;236;26636;-65
2022/05/21 02:24:13;;;;;;;1.35;1.02;;;14.80;93.10;;;;;;610133;235;26640;-65
2022/05/21 02:26:39;;;;;;;1.73;1.00;;;14.80;93.10;;;;;;609815;236;26589;-65
2022/05/21 02:29:06;;;;;;;0.95;0.95;;;14.80;93.30;;;;;;609892;235;26572;-65
2022/05/21 02:31:33;;;;;;;0.90;0.90;;;14.80;93.10;;;;;;609881;235;26813;-65
2022/05/21 02:34:00;;;;;;;1.00;1.00;;;14.80;92.90;;;;;;609863;235;26613;-65
2022/05/21 02:41:34;;;;;;;1.77;0.88;;;14.90;92.30;;;;;;609824;235;26608;-65
2022/05/21 02:44:02;;;;;;;0.82;0.80;;;14.80;92.40;;;;;;609872;236;26613;-64
2022/05/21 02:46:29;;;;;;;1.08;0.80;;;14.80;92.40;;;;;;609905;232;26611;-65
2022/05/21 02:48:56;;;;;;;0.93;0.93;;;14.80;92.20;;;;;;609947;236;26612;-64
2022/05/21 02:51:24;;;;;;;0.80;0.80;;;14.80;92.10;;;;;;609805;235;26826;-64
2022/05/21 02:53:51;;;;;;;1.52;0.98;;;14.90;92.10;;;;;;609873;235;26627;-64
2022/05/21 02:56:18;;;;;;;0.77;0.77;;;14.80;91.90;;;;;;609905;236;26822;-64
2022/05/21 02:58:45;;;;;;;1.00;1.00;;;14.90;92.10;;;;;;609881;236;26615;-64
2022/05/21 03:01:12;;;;;;;1.58;1.00;;;14.90;91.90;;;;;;611005;233;26826;-64
2022/05/21 03:03:40;;;;;;;0.98;0.98;;;14.90;91.90;;;;;;611125;235;26604;-64
2022/05/21 03:06:07;;;;;;;1.15;0.85;;;14.90;91.60;;;;;;610846;235;26892;-65
2022/05/21 03:11:16;;;;;;;1.00;0.90;;;14.70;91.10;;;;;;609195;236;26616;-64
2022/05/21 03:13:43;;;;;;;1.12;1.10;;;14.70;91.10;;;;;;610489;236;26616;-65
2022/05/21 03:16:11;;;;;;;1.77;1.10;;;14.70;91.00;;;;;;610461;236;26834;-65
2022/05/21 03:18:38;;;;;;;1.00;1.00;;;14.70;90.80;;;;;;610342;235;26607;-64
2022/05/21 03:21:05;;;;;;;2.22;1.00;;;14.70;90.90;;;;;;610148;235;26852;-65
2022/05/21 03:23:32;;;;;;;1.42;0.77;;;14.60;90.70;;;;;;610171;235;26648;-65
2022/05/21 03:25:59;;;;;;;0.82;0.82;;;14.60;90.70;;;;;;610202;236;26840;-65
2022/05/21 03:28:26;;;;;;;1.95;0.90;;;14.60;90.70;;;;;;610232;236;26629;-64
2022/05/21 03:30:54;;;;;;;0.90;0.90;;;14.50;90.90;;;;;;610152;236;26867;-65
2022/05/21 03:33:21;;;;;;;1.27;1.05;;;14.50;90.70;;;;;;610092;235;26641;-65
2022/05/21 03:35:48;;;;;;;1.10;1.02;;;14.40;90.60;;;;;;610136;236;26635;-64
2022/05/21 03:38:19;;;;;;;0.95;0.95;;;14.20;90.30;;;;;;609883;235;26609;-64
2022/05/21 03:40:44;;;;;;;0.90;0.90;;;14.10;90.70;;;;;;610113;236;26564;-64
2022/05/21 03:43:11;;;;;;;1.87;1.05;;;14.10;90.70;;;;;;610229;235;26574;-63
2022/05/21 03:45:39;;;;;;;1.40;0.93;;;14.00;91.00;;;;;;610245;235;26550;-64
2022/05/21 03:48:07;;;;;;;1.12;1.02;;;13.90;91.00;;;;;;610273;236;26559;-64
2022/05/21 03:50:35;;;;;;;1.30;0.80;;;13.90;91.00;;;;;;610252;236;26544;-64
2022/05/21 03:53:02;;;;;;;0.90;0.90;;;13.80;91.20;;;;;;609961;236;26653;-64
2022/05/21 03:55:30;;;;;;;0.88;0.88;;;13.80;91.20;;;;;;609654;236;26719;-64
2022/05/21 03:57:57;;;;;;;1.77;0.75;;;13.80;90.90;;;;;;609720;236;26641;-64
2022/05/21 04:00:25;;;;;;;1.62;1.10;;;13.80;90.70;;;;;;609700;235;26655;-64
2022/05/21 04:02:53;;;;;;;1.75;0.90;;;13.80;90.90;;;;;;609795;235;26593;-64
2022/05/21 04:05:22;;;;;;;0.90;0.90;;;13.80;91.10;;;;;;609893;235;26588;-64
2022/05/21 04:07:49;;;;;;;0.95;0.90;;;13.80;90.80;;;;;;609941;235;26850;-64
2022/05/21 04:10:16;;;;;;;1.23;0.90;;;13.80;90.70;;;;;;609897;236;26596;-65
2022/05/21 04:12:43;;;;;;;2.53;0.80;;;13.80;90.90;;;;;;610931;233;26838;-63
2022/05/21 04:15:11;;;;;;;2.08;1.00;;;13.80;90.80;;;;;;611108;234;26578;-63
2022/05/21 04:17:39;;;;;;;0.80;0.80;;;13.70;90.60;;;;;;610821;235;26627;-62
2022/05/21 04:20:08;;;;;;;1.27;1.05;;;13.60;90.80;;;;;;610852;235;26576;-63
2022/05/21 04:22:36;;;;;;;0.82;0.82;;;13.60;90.80;;;;;;610355;235;26568;-63
2022/05/21 04:25:06;;;;;;;2.10;0.82;;;13.50;90.20;;;;;;610473;235;26584;-62
2022/05/21 04:27:31;;;;;;;1.15;0.80;;;13.50;90.00;;;;;;610361;236;26592;-63
2022/05/21 04:29:58;;;;;;;1.37;0.90;;;13.60;90.00;;;;;;610373;236;26829;-63
2022/05/21 04:32:25;;;;;;;0.85;0.85;;;13.60;89.70;;;;;;610125;235;26640;-63
2022/05/21 04:34:53;;;;;;;0.98;0.90;;;13.50;84.60;;;;;;610099;235;26837;-63
2022/05/21 04:37:21;;;;;;;1.50;0.80;;;13.30;83.20;;;;;;610167;236;26631;-63
2022/05/21 04:39:49;;;;;;;1.45;1.00;;;13.40;84.10;;;;;;610164;236;26615;-63
2022/05/21 04:42:17;;;;;;;2.03;1.00;;;13.50;84.20;;;;;;610132;236;26620;-63
2022/05/21 04:44:44;;;;;;;0.80;0.80;;;13.40;83.90;;;;;;610119;235;26688;-63
2022/05/21 04:47:12;;;;;;;1.65;0.77;;;13.50;83.70;;;;;;610149;235;26637;-63
2022/05/21 04:49:39;;;;;;;1.75;0.90;;;13.50;82.60;;;;;;609907;236;26829;-63
2022/05/21 04:52:06;;;;;;;1.73;0.95;;;13.50;82.90;;;;;;609855;236;26630;-63
2022/05/21 04:54:33;;;;;;;0.80;0.80;;;13.40;82.60;;;;;;609838;235;26611;-63
2022/05/21 04:57:00;;;;;;;1.17;0.70;;;13.60;82.70;;;;;;609658;236;27102;-63
2022/05/21 04:59:28;;;;;;;1.00;0.90;;;13.60;82.70;;;;;;609870;236;26580;-63
2022/05/21 05:01:56;;;;;;;1.67;1.00;;;13.80;83.10;;;;;;609895;235;26592;-63
2022/05/21 05:04:23;;;;;;;0.85;0.70;;;14.00;83.70;;;;;;610199;235;26580;-63
2022/05/21 05:06:51;;;;;;;0.80;0.80;;;14.00;84.10;;;;;;610253;235;26549;-63
2022/05/21 05:09:22;;;;;;;2.55;0.90;;;13.90;85.10;;;;;;610245;236;26627;-63
2022/05/21 05:11:47;;;;;;;1.27;0.80;;;13.80;84.90;;;;;;610216;236;26553;-63
2022/05/21 05:14:14;;;;;;;2.95;0.90;;;13.80;84.90;;;;;;610238;235;26829;-63
2022/05/21 05:16:41;;;;;;;0.80;0.80;;;13.70;84.90;;;;;;610259;235;26549;-63
2022/05/21 05:19:09;;;;;;;0.73;0.73;;;13.60;85.30;;;;;;610223;236;26889;-63
2022/05/21 05:21:35;;;;;;;1.83;1.00;;;13.50;86.40;;;;;;610196;236;26582;-63
2022/05/21 05:24:03;;;;;;;1.02;0.90;;;13.50;85.90;;;;;;610909;233;26883;-63
2022/05/21 05:26:30;;;;;;;0.70;0.70;;;13.50;85.60;;;;;;611081;235;26840;-63
2022/05/21 05:28:58;;;;;;;1.00;0.80;;;13.50;85.40;;;;;;610842;235;26634;-64
2022/05/21 05:31:26;;;;;;;1.25;0.90;;;13.40;85.30;;;;;;610738;235;26583;-63
2022/05/21 05:33:56;;;;;;;1.55;1.00;;;13.50;84.20;;;;;;610477;235;26599;-63
2022/05/21 05:36:22;;;;;;;1.00;1.00;;;13.40;84.20;;;;;;610298;236;26579;-63
2022/05/21 05:38:49;;;;;;;0.80;0.80;;;13.40;84.20;;;;;;610471;236;26583;-64
2022/05/21 05:41:16;;;;;;;1.42;1.00;;;13.60;83.70;;;;;;610388;236;26785;-63
2022/05/21 05:43:43;;;;;;;1.52;1.00;;;13.80;83.30;;;;;;610186;235;26862;-64
2022/05/21 05:46:11;;;;;;;1.60;0.90;;;13.90;82.40;;;;;;610265;236;26605;-64
2022/05/21 05:48:38;;;;;;;0.80;0.80;;;14.00;82.00;;;;;;610213;235;26872;-64
2022/05/21 05:51:05;;;;;;;0.82;0.80;;;14.00;81.60;;;;;;610248;236;26636;-64
2022/05/21 05:53:32;;;;;;;0.68;0.68;;;13.80;82.00;;;;;;610198;236;26894;-64
2022/05/21 05:55:59;;;;;;;1.37;1.08;;;13.90;81.70;;;;;;610271;236;26640;-64
2022/05/21 06:01:00;;;;;;;1.52;0.90;;;13.80;81.40;;;;;;609931;236;26641;-64
2022/05/21 06:03:27;;;;;;;1.00;0.90;;;13.90;81.70;;;;;;609876;235;26798;-64
2022/05/21 06:05:55;;;;;;;0.93;0.70;;;14.10;80.30;;;;;;609928;236;26580;-64
2022/05/21 06:08:23;;;;;;;2.67;0.93;;;14.00;80.20;;;;;;609905;236;26572;-64
2022/05/21 06:10:51;;;;;;;1.90;0.90;;;14.10;79.90;;;;;;609911;235;26581;-64
2022/05/21 06:13:19;;;;;;;1.27;1.00;;;14.20;79.30;;;;;;609842;235;26616;-64
2022/05/21 06:15:48;;;;;;;1.85;0.93;;;14.30;79.00;;;;;;609855;236;26616;-63
2022/05/21 06:18:16;;;;;;;1.02;0.80;;;15.00;78.40;;;;;;609895;235;26614;-64
2022/05/21 06:20:43;;;;;;;2.05;0.82;;;15.30;76.50;;;;;;609823;236;26573;-64
2022/05/21 06:23:12;;;;;;;2.33;1.08;;;15.20;76.40;;;;;;609694;235;26620;-63
2022/05/21 06:25:37;;;;;;;0.70;0.70;;;15.10;74.90;;;;;;609904;235;26630;-64
2022/05/21 06:28:05;;;;;;;0.80;0.80;;;14.90;75.20;;;;;;609892;236;26870;-64
2022/05/21 06:30:32;;;;;;;1.15;1.02;;;14.80;74.90;;;;;;609913;235;26569;-64
2022/05/21 06:33:00;;;;;;;0.90;0.90;;;15.00;75.20;;;;;;609793;236;26604;-64
2022/05/21 06:35:28;;;;;;;1.17;0.90;;;14.90;74.50;;;;;;609381;233;26850;-64
2022/05/21 06:37:55;;;;;;;0.95;0.90;;;14.90;74.90;;;;;;611217;235;26590;-63
2022/05/21 06:40:22;;;;;;;1.30;0.90;;;15.10;74.10;;;;;;610910;235;26844;-63
2022/05/21 06:42:49;;;;;;;1.80;1.30;;;14.90;73.80;;;;;;610624;235;26611;-63
2022/05/21 06:45:16;;;;;;;1.00;1.00;;;14.80;73.60;;;;;;610531;235;26553;-63
2022/05/21 06:47:44;;;;;;;0.80;0.80;;;14.80;73.40;;;;;;610471;235;26577;-64
2022/05/21 06:50:12;;;;;;;2.58;1.10;;;14.90;73.50;;;;;;610441;236;26588;-64
2022/05/21 06:52:40;;;;;;;1.48;1.00;;;15.00;73.40;;;;;;610398;235;26585;-64
2022/05/21 06:55:08;;;;;;;0.90;0.77;;;15.00;73.40;;;;;;610150;236;26633;-64
2022/05/21 06:57:35;;;;;;;1.27;1.00;;;15.20;73.90;;;;;;610089;236;26635;-64
2022/05/21 07:00:02;;;;;;;2.85;1.10;;;15.30;73.80;;;;;;610139;236;26866;-64
2022/05/21 07:02:30;;;;;;;3.75;1.20;;;15.20;72.80;;;;;;610034;235;26647;-64
2022/05/21 07:07:33;;;;;;;0.85;0.85;;;15.60;72.40;;;;;;610190;236;26637;-64
2022/05/21 07:10:09;;;;;;;1.08;0.98;;;15.60;72.10;;;;;;610154;236;26865;-63
2022/05/21 07:12:36;;;;;;;0.98;0.90;;;15.50;72.00;;;;;;610328;235;26607;-64
2022/05/21 07:15:03;;;;;;;2.42;0.93;;;15.60;70.70;;;;;;610243;235;26996;-63
2022/05/21 07:17:30;;;;;;;1.65;0.95;;;15.60;70.80;;;;;;610049;236;26584;-62
2022/05/21 07:19:57;;;;;;;1.27;0.90;;;15.30;70.60;;;;;;609936;235;26580;-63
2022/05/21 07:22:26;;;;;;;1.70;1.00;;;15.20;71.50;;;;;;609812;235;26620;-63
2022/05/21 07:24:54;;;;;;;1.08;0.90;;;15.10;71.60;;;;;;609845;236;26572;-63
2022/05/21 07:27:23;;;;;;;1.25;0.90;;;15.40;70.50;;;;;;609882;236;26589;-63
2022/05/21 07:29:50;;;;;;;0.90;0.90;;;15.40;69.90;;;;;;609853;236;26577;-63
2022/05/21 07:32:19;;;;;;;0.95;0.85;;;15.60;69.60;;;;;;609878;236;26861;-63
2022/05/21 07:34:46;;;;;;;2.05;1.00;;;15.60;69.60;;;;;;609760;235;26846;-63
2022/05/21 07:37:14;;;;;;;3.55;1.30;;;15.50;70.00;;;;;;609890;235;26585;-63
2022/05/21 07:39:42;;;;;;;1.55;0.93;;;15.30;71.10;;;;;;609922;235;26554;-63
2022/05/21 07:42:10;;;;;;;0.70;0.70;;;15.50;71.20;;;;;;609829;236;26557;-63
2022/05/21 07:44:38;;;;;;;0.90;0.77;;;15.50;71.50;;;;;;609859;235;26621;-63
2022/05/21 07:47:05;;;;;;;1.02;0.90;;;15.50;71.60;;;;;;610762;233;26633;-63
2022/05/21 07:49:32;;;;;;;0.80;0.80;;;15.70;71.40;;;;;;611158;234;26577;-64
2022/05/21 07:51:59;;;;;;;0.90;0.80;;;15.80;71.20;;;;;;610813;235;26815;-63
2022/05/21 07:54:27;;;;;;;0.88;0.88;;;16.30;71.00;;;;;;610709;234;26620;-64
2022/05/21 07:56:54;;;;;;;1.45;0.80;;;16.00;71.10;;;;;;610532;235;26833;-64
2022/05/21 07:59:21;;;;;;;0.90;0.85;;;15.90;71.70;;;;;;610515;235;26569;-64
2022/05/21 08:01:48;;;;;;;0.80;0.80;;;16.20;71.50;;;;;;610456;236;26800;-63
2022/05/21 08:04:17;;;;;;;0.77;0.77;;;16.40;71.20;;;;;;610394;236;26604;-63
2022/05/21 08:06:43;;;;;;;1.85;1.08;;;16.70;71.00;;;;;;610061;236;27195;-63
2022/05/21 08:09:10;;;;;;;2.60;1.17;;;16.40;70.90;;;;;;609348;235;26629;-64
2022/05/21 08:11:37;;;;;;;0.93;0.70;;;16.50;70.80;;;;;;602811;234;27229;-64
2022/05/21 08:14:05;;;;;;;0.80;0.80;;;16.60;71.40;;;;;;604244;234;26619;-63
2022/05/21 08:16:34;;;;;;;2.22;1.00;;;16.90;71.30;;;;;;610016;236;26636;-63
2022/05/21 08:19:01;;;;;;;1.02;0.98;;;16.90;71.30;;;;;;610153;236;26647;-64
2022/05/21 08:21:28;;;;;;;0.82;0.82;;;17.70;69.50;;;;;;610162;236;26879;-63
2022/05/21 08:29:01;;;;;;;1.85;0.88;;;18.10;67.30;;;;;;603994;236;26941;-63
2022/05/21 08:31:28;;;;;;;1.87;1.08;;;18.60;66.80;;;;;;605472;236;26630;-63
2022/05/21 08:33:56;;;;;;;0.93;0.90;;;18.50;64.50;;;;;;604259;236;26900;-63
2022/05/21 08:36:23;;;;;;;4.12;1.15;;;18.40;64.40;;;;;;604001;235;26648;-62
2022/05/21 08:38:51;;;;;;;1.23;0.95;;;18.10;65.10;;;;;;595143;239;26669;-63
2022/05/21 08:41:19;;;;;;;2.60;1.10;;;18.00;65.00;;;;;;606388;235;26710;-63
2022/05/21 08:43:54;;;;;;;4.50;0.90;;;18.10;65.00;;;;;;603890;235;26690;-63
2022/05/21 08:46:32;;;;;;;0.85;0.85;;;18.00;65.40;;;;;;605122;235;26683;-64
2022/05/21 08:49:01;;;;;;;1.08;0.80;;;17.70;66.30;;;;;;604480;235;26639;-64
2022/05/21 08:51:30;;;;;;;5.78;1.08;;;17.50;67.00;;;;;;605821;235;26621;-64
2022/05/21 08:53:58;;;;;;;3.95;0.85;;;17.50;67.00;;;;;;606325;234;26663;-65
2022/05/21 08:56:25;;;;;;;1.17;0.90;;;17.10;68.70;;;;;;604535;236;26582;-62
2022/05/21 08:58:53;;;;;;;3.37;1.30;;;16.50;71.50;;;;;;604970;235;26565;-62
2022/05/21 09:01:21;;;;;;;1.27;0.95;;;16.40;74.40;;;;;;604175;237;26603;-62
2022/05/21 09:03:50;;;;;;;1.75;1.00;;;16.30;74.30;;;;;;606362;235;26637;-61
2022/05/21 09:06:31;;;;;;;2.35;1.10;;;15.80;89.40;;;;;;605966;235;26571;-61
2022/05/21 09:09:04;;;;;;;1.17;0.75;;;14.40;97.50;;;;;;606001;235;26831;-62
2022/05/21 09:11:35;;;;;;;2.58;1.12;;;14.40;99.90;;;;;;609788;236;26966;-62
2022/05/21 09:14:04;;;;;;;3.42;1.27;;;14.80;99.90;;;;;;602534;236;26616;-62
2022/05/21 09:19:08;;;;;;;13.25;3.00;;;15.50;97.00;;;;;;604423;236;26839;-64
2022/05/21 09:21:40;;;;;;;23.30;4.25;;;15.80;94.10;;;;;;609976;236;26639;-64
2022/05/21 09:24:08;;;;;;;16.87;4.47;;;16.10;92.70;;;;;;606157;236;26846;-64
2022/05/21 09:26:49;;;;;;;13.98;4.43;;;15.70;92.80;;;;;;602693;236;26582;-65
2022/05/21 09:29:20;;;;;;;5.70;2.87;;;15.70;92.60;;;;;;607162;236;26925;-63
2022/05/21 09:31:47;;;;;;;10.02;3.42;;;15.60;90.50;;;;;;603442;237;26607;-64
2022/05/21 09:34:15;;;;;;;9.50;2.90;;;15.60;89.90;;;;;;604732;237;26716;-64
2022/05/21 09:36:42;;;;;;;8.98;3.75;;;15.80;89.40;;;;;;600855;238;26661;-64
2022/05/21 09:39:09;;;;;;;17.05;7.03;;;15.80;89.20;;;;;;604320;238;26848;-65
2022/05/21 09:41:37;;;;;;;10.15;4.40;;;15.80;88.50;;;;;;603027;238;26577;-65
2022/05/21 09:46:42;;;;;;;16.92;7.30;;;15.60;88.50;;;;;;602673;236;26654;-65
2022/05/21 09:49:13;;;;;;;15.32;7.10;;;15.70;88.30;;;;;;609752;236;27236;-65
2022/05/21 09:51:41;;;;;;;16.45;6.68;;;16.10;85.80;;;;;;604949;236;26606;-65
2022/05/21 09:54:19;;;;;;;15.50;5.93;;;16.00;85.30;;;;;;603667;234;26602;-64
2022/05/21 09:56:48;;;;;;;12.40;5.68;;;16.00;85.30;;;;;;602372;236;26657;-64
2022/05/21 09:59:15;;;;;;;8.88;5.25;;;15.90;85.60;;;;;;604428;237;26586;-64
2022/05/21 10:01:44;;;;;;;22.95;9.50;;;15.90;85.00;;;;;;608541;235;26587;-65
2022/05/21 10:04:14;;;;;;;21.20;9.80;;;16.00;90.60;;;;;;606607;234;26601;-67
2022/05/21 10:06:44;;;;;;;22.15;10.43;;;16.00;90.10;;;;;;609292;235;26638;-65
2022/05/21 10:11:49;;;;;;;19.73;9.15;;;15.80;90.50;;;;;;605512;237;26600;-66
2022/05/21 10:14:17;;;;;;;21.58;8.77;;;16.20;89.10;;;;;;609569;235;26643;-64
2022/05/21 10:16:50;;;;;;;18.70;7.72;;;16.40;88.80;;;;;;605152;237;26598;-64
2022/05/21 10:19:18;;;;;;;13.55;7.20;;;16.50;84.80;;;;;;603278;237;27205;-70
2022/05/21 10:22:02;;;;;;;13.05;6.72;;;16.70;83.10;;;;;;608435;236;26853;-66
2022/05/21 10:24:41;;;;;;;17.98;6.78;;;17.10;82.10;;;;;;610899;235;26851;-67
2022/05/21 10:27:19;;;;;;;10.10;4.80;;;17.10;80.60;;;;;;606288;236;26565;-67
2022/05/21 10:30:11;;;;;;;14.85;6.22;;;17.50;79.90;;;;;;604632;238;26563;-66
2022/05/21 10:32:55;;;;;;;14.18;5.68;;;17.40;77.70;;;;;;610648;234;26600;-65
2022/05/21 10:35:28;;;;;;;11.70;5.40;;;17.60;76.50;;;;;;599595;238;26624;-65
2022/05/21 10:38:13;;;;;;;14.05;5.80;;;17.60;76.50;;;;;;602498;238;26549;-64
2022/05/21 10:40:42;;;;;;;13.68;5.90;;;17.90;76.30;;;;;;610580;233;26810;-66
2022/05/21 10:43:09;;;;;;;12.95;5.68;;;17.80;72.90;;;;;;601984;239;26590;-65
2022/05/21 10:45:41;;;;;;;12.40;5.57;;;17.70;71.70;;;;;;607802;235;26830;-66
2022/05/21 10:48:26;;;;;;;13.13;5.30;;;18.60;69.60;;;;;;602051;236;26619;-66
2022/05/21 10:50:55;;;;;;;12.65;5.55;;;18.60;69.60;;;;;;597357;238;26648;-66
2022/05/21 10:53:31;;;;;;;12.95;4.93;;;18.60;69.00;;;;;;603137;238;26613;-66
2022/05/21 10:55:59;;;;;;;10.23;4.85;;;18.60;69.00;;;;;;602524;236;26593;-66
2022/05/21 10:58:44;;;;;;;9.05;4.60;;;18.30;69.10;;;;;;609598;235;26643;-65
2022/05/21 11:01:18;;;;;;;9.35;4.45;;;17.80;68.10;;;;;;598699;238;26644;-64
2022/05/21 11:04:04;;;;;;;7.20;4.00;;;17.20;69.40;;;;;;604531;234;26661;-67
2022/05/21 11:06:38;;;;;;;10.55;4.72;;;17.00;70.40;;;;;;612440;234;26641;-65
2022/05/21 11:09:08;;;;;;;10.13;4.03;;;16.90;70.80;;;;;;606687;236;26670;-64
2022/05/21 11:11:49;;;;;;;7.45;4.18;;;17.20;71.30;;;;;;603815;238;26934;-65
2022/05/21 11:14:19;;;;;;;7.30;3.92;;;17.30;70.70;;;;;;608100;236;26857;-65
2022/05/21 11:16:48;;;;;;;5.35;3.40;;;17.30;70.20;;;;;;602662;237;26640;-66
2022/05/21 11:19:16;;;;;;;13.25;3.83;;;17.60;69.40;;;;;;604072;237;26837;-66
2022/05/21 11:21:47;;;;;;;7.12;3.78;;;19.00;64.30;;;;;;608970;233;26632;-65
2022/05/21 11:24:18;;;;;;;5.37;3.90;;;19.20;63.10;;;;;;603254;237;26642;-72
2022/05/21 11:26:47;;;;;;;5.30;3.15;;;19.20;63.00;;;;;;606973;235;26635;-75
2022/05/21 11:29:16;;;;;;;6.07;3.42;;;19.30;61.10;;;;;;607593;235;26632;-74
2022/05/21 11:39:30;;;;;;;5.75;2.72;;;19.20;63.70;;;;;;603371;238;26878;-72
2022/05/21 11:42:00;;;;;;;6.10;2.72;;;19.30;62.80;;;;;;601757;237;26546;-73
2022/05/21 11:47:38;;;;;;;4.50;2.78;;;19.60;62.70;;;;;;606023;235;26878;-72
2022/05/21 11:50:13;;;;;;;4.20;3.05;;;20.00;62.10;;;;;;607343;235;26602;-73
2022/05/21 11:53:04;;;;;;;4.50;2.90;;;20.00;62.10;;;;;;603154;237;26566;-72
2022/05/21 11:55:30;;;;;;;16.62;4.90;;;19.50;62.30;;;;;;604842;235;26553;-73
2022/05/21 11:57:57;;;;;;;15.60;5.70;;;18.20;64.70;;;;;;606734;235;26603;-73
2022/05/21 12:00:39;;;;;;;19.27;5.60;;;18.10;64.60;;;;;;602395;238;26692;-76
2022/05/21 12:03:13;;;;;;;16.73;5.43;;;17.90;64.80;;;;;;607716;236;26852;-75
2022/05/21 12:05:56;;;;;;;14.75;5.28;;;17.80;65.20;;;;;;610180;236;26561;-73
2022/05/21 12:08:38;;;;;;;14.87;4.85;;;17.50;65.80;;;;;;611077;235;26578;-73
2022/05/21 12:11:09;;;;;;;11.18;4.82;;;17.70;66.90;;;;;;604712;237;26546;-76
2022/05/21 12:13:52;;;;;;;14.27;4.43;;;17.70;66.90;;;;;;604905;237;26599;-73
2022/05/21 12:16:42;;;;;;;9.57;4.05;;;17.80;68.10;;;;;;605025;235;27030;-74
2022/05/21 12:19:10;;;;;;;13.38;6.32;;;17.70;66.10;;;;;;603034;238;26608;-71
2022/05/21 12:21:59;;;;;;;14.38;8.45;;;17.80;65.30;;;;;;608825;236;26553;-72
2022/05/21 12:24:35;;;;;;;16.15;7.25;;;18.20;63.90;;;;;;610085;234;26712;-72
2022/05/21 12:27:05;;;;;;;14.02;7.68;;;17.90;62.20;;;;;;606066;236;26561;-74
2022/05/21 12:29:31;;;;;;;14.23;7.05;;;17.80;62.20;;;;;;606248;236;27058;-73
2022/05/21 12:31:59;;;;;;;13.38;6.97;;;17.60;62.80;;;;;;601587;238;26597;-72
2022/05/21 12:34:30;;;;;;;22.08;12.10;;;17.60;63.60;;;;;;605312;235;26859;-74
2022/05/21 12:37:01;;;;;;;22.00;10.65;;;17.50;64.10;;;;;;607134;235;27040;-69
2022/05/21 12:39:39;;;;;;;25.23;10.75;;;17.50;65.50;;;;;;603806;235;26836;-73
2022/05/21 12:42:07;;;;;;;20.45;10.73;;;18.20;64.40;;;;;;604882;237;26846;-76
2022/05/21 12:44:35;;;;;;;21.37;10.10;;;18.20;64.40;;;;;;602645;238;26622;-75
2022/05/21 12:47:02;;;;;;;16.42;8.82;;;18.40;64.50;;;;;;603596;237;26882;-71
2022/05/21 12:49:29;;;;;;;15.90;8.88;;;18.50;63.90;;;;;;606565;233;26598;-70
2022/05/21 12:51:57;;;;;;;16.77;7.87;;;19.60;62.60;;;;;;609247;236;26671;-70
2022/05/21 12:54:25;;;;;;;19.20;8.15;;;20.20;60.60;;;;;;604102;234;26648;-69
2022/05/21 12:56:53;;;;;;;14.63;7.50;;;20.40;59.30;;;;;;602929;236;26585;-70
2022/05/21 12:59:29;;;;;;;14.15;7.37;;;20.80;58.20;;;;;;605990;233;26581;-70
2022/05/21 13:02:14;;;;;;;13.98;6.65;;;20.50;57.50;;;;;;603911;236;26593;-71
2022/05/21 13:04:41;;;;;;;12.85;6.35;;;20.50;57.50;;;;;;603671;237;26618;-70
2022/05/21 13:07:16;;;;;;;12.52;6.80;;;21.00;56.80;;;;;;603392;236;26586;-71
2022/05/21 13:09:54;;;;;;;15.63;7.30;;;20.90;56.70;;;;;;603795;233;26878;-74
2022/05/21 13:12:21;;;;;;;13.52;6.10;;;21.00;56.40;;;;;;608946;235;26621;-75
2022/05/21 13:14:49;;;;;;;15.25;6.03;;;21.40;55.20;;;;;;603879;232;26855;-69
2022/05/21 13:17:27;;;;;;;9.70;5.35;;;21.20;54.80;;;;;;602115;236;26609;-72
2022/05/21 13:19:56;;;;;;;9.20;5.18;;;22.00;55.30;;;;;;603344;235;26621;-69
2022/05/21 13:22:42;;;;;;;12.30;5.18;;;22.00;53.90;;;;;;604092;236;26589;-69
2022/05/21 13:25:09;;;;;;;10.15;4.40;;;21.20;54.50;;;;;;603262;236;27296;-69
2022/05/21 13:27:44;;;;;;;9.98;4.32;;;20.30;55.60;;;;;;608825;235;26644;-73
2022/05/21 13:30:11;;;;;;;16.45;4.25;;;19.80;57.10;;;;;;604210;236;26587;-71
2022/05/21 13:32:38;;;;;;;8.30;3.97;;;19.40;57.70;;;;;;607082;235;26558;-70